createdAt,value
2022-12-11T00:00:57.083Z,65.60
2022-12-11T00:03:40.592Z,65.54
2022-12-11T00:06:10.442Z,65.63
2022-12-11T00:08:38.426Z,65.50
2022-12-11T00:11:09.497Z,64.92
2022-12-11T00:13:37.411Z,64.97
2022-12-11T00:16:05.744Z,65.50
2022-12-11T00:18:33.543Z,65.03
2022-12-11T00:21:03.051Z,64.96
2022-12-11T00:23:30.927Z,64.86
2022-12-11T00:25:58.732Z,64.64
2022-12-11T00:28:26.492Z,64.26
2022-12-11T00:30:54.817Z,64.18
2022-12-11T00:33:22.683Z,64.36
2022-12-11T00:35:50.548Z,64.62
2022-12-11T00:38:21.623Z,64.78
2022-12-11T00:40:49.493Z,65.39
2022-12-11T00:43:17.918Z,65.66
2022-12-11T00:45:46.851Z,65.90
2022-12-11T00:48:14.897Z,65.50
2022-12-11T00:50:43.374Z,65.31
2022-12-11T00:53:11.241Z,65.82
2022-12-11T00:55:40.795Z,66.57
2022-12-11T00:58:08.812Z,66.94
2022-12-11T01:00:36.986Z,66.71
2022-12-11T01:03:05.102Z,66.40
2022-12-11T01:05:33.640Z,66.44
2022-12-11T01:08:03.603Z,66.80
2022-12-11T01:10:32.415Z,66.52
2022-12-11T01:13:10.237Z,66.44
2022-12-11T01:15:44.285Z,66.39
2022-12-11T01:18:13.752Z,67.10
2022-12-11T01:20:42.950Z,68.07
2022-12-11T01:23:13.299Z,67.30
2022-12-11T01:25:41.748Z,66.56
2022-12-11T01:28:09.792Z,66.13
2022-12-11T01:30:37.916Z,66.02
2022-12-11T01:33:05.971Z,66.64
2022-12-11T01:35:34.212Z,67.66
2022-12-11T01:38:03.131Z,66.86
2022-12-11T01:40:30.994Z,66.98
2022-12-11T01:42:58.861Z,66.99
2022-12-11T01:45:39.370Z,67.08
2022-12-11T01:48:14.253Z,66.62
2022-12-11T01:51:03.825Z,67.67
2022-12-11T01:53:35.373Z,67.82
2022-12-11T01:56:03.855Z,67.35
2022-12-11T01:58:34.380Z,66.78
2022-12-11T02:01:02.345Z,67.17
2022-12-11T02:03:30.730Z,68.66
2022-12-11T02:06:00.952Z,67.71
2022-12-11T02:08:29.177Z,67.12
2022-12-11T02:11:20.646Z,68.64
2022-12-11T02:13:55.476Z,68.06
2022-12-11T02:16:31.416Z,66.82
2022-12-11T02:19:08.134Z,66.78
2022-12-11T02:21:41.385Z,66.47
2022-12-11T02:24:43.049Z,66.57
2022-12-11T02:27:30.530Z,66.23
2022-12-11T02:30:08.896Z,66.17
2022-12-11T02:32:46.799Z,67.64
2022-12-11T02:35:37.133Z,67.39
2022-12-11T02:38:18.393Z,66.77
2022-12-11T02:40:46.636Z,66.52
2022-12-11T02:43:14.966Z,67.32
2022-12-11T02:45:42.969Z,66.66
2022-12-11T02:48:11.462Z,66.09
2022-12-11T02:50:49.156Z,66.15
2022-12-11T02:53:19.619Z,66.63
2022-12-11T02:55:48.165Z,66.12
2022-12-11T02:58:22.781Z,65.91
2022-12-11T03:00:50.755Z,66.43
2022-12-11T03:03:18.620Z,66.61
2022-12-11T03:05:46.486Z,67.46
2022-12-11T03:08:17.539Z,67.66
2022-12-11T03:10:45.902Z,66.70
2022-12-11T03:13:14.203Z,66.22
2022-12-11T03:16:01.332Z,66.44
2022-12-11T03:19:04.284Z,67.04
2022-12-11T03:21:46.178Z,68.44
2022-12-11T03:24:38.825Z,68.69
2022-12-11T03:27:21.028Z,68.22
2022-12-11T03:30:00.321Z,67.57
2022-12-11T03:32:37.951Z,67.52
2022-12-11T03:35:17.596Z,68.17
2022-12-11T03:37:45.462Z,68.01
2022-12-11T03:40:16.334Z,67.88
2022-12-11T03:42:45.698Z,69.02
2022-12-11T03:45:13.863Z,68.40
2022-12-11T03:47:41.861Z,67.80
2022-12-11T03:50:11.446Z,67.57
2022-12-11T03:52:45.807Z,67.97
2022-12-11T03:55:16.331Z,67.85
2022-12-11T03:57:44.235Z,67.01
2022-12-11T04:00:15.856Z,66.88
2022-12-11T04:02:43.878Z,67.48
2022-12-11T04:05:12.126Z,66.84
2022-12-11T04:07:40.320Z,66.80
2022-12-11T04:10:08.196Z,66.51
2022-12-11T04:12:36.006Z,65.97
2022-12-11T04:15:04.347Z,66.09
2022-12-11T04:17:53.564Z,65.69
2022-12-11T04:20:40.310Z,65.28
2022-12-11T04:23:36.439Z,65.43
2022-12-11T04:26:10.004Z,65.45
2022-12-11T04:28:38.207Z,65.03
2022-12-11T04:31:06.755Z,64.33
2022-12-11T04:33:34.859Z,64.11
2022-12-11T04:36:02.657Z,65.16
2022-12-11T04:38:30.591Z,64.94
2022-12-11T04:41:06.702Z,64.67
2022-12-11T04:43:34.824Z,64.73
2022-12-11T04:46:12.989Z,65.40
2022-12-11T04:48:41.202Z,66.24
2022-12-11T04:51:09.377Z,65.77
2022-12-11T04:53:37.454Z,65.28
2022-12-11T04:56:10.335Z,64.99
2022-12-11T04:58:40.067Z,65.45
2022-12-11T05:01:09.815Z,65.26
2022-12-11T05:03:37.714Z,65.25
2022-12-11T05:06:05.989Z,65.24
2022-12-11T05:08:35.391Z,65.21
2022-12-11T05:11:06.428Z,66.01
2022-12-11T05:13:34.404Z,65.76
2022-12-11T05:16:06.000Z,65.77
2022-12-11T05:18:34.430Z,65.93
2022-12-11T05:21:05.468Z,66.16
2022-12-11T05:23:33.573Z,66.46
2022-12-11T05:26:06.965Z,66.89
2022-12-11T05:28:36.745Z,67.35
2022-12-11T05:31:14.845Z,66.71
2022-12-11T05:33:44.053Z,66.83
2022-12-11T05:36:27.068Z,66.55
2022-12-11T05:38:55.140Z,67.48
2022-12-11T05:41:24.541Z,67.39
2022-12-11T05:43:52.509Z,66.73
2022-12-11T05:46:26.114Z,67.85
2022-12-11T05:48:57.041Z,68.36
2022-12-11T05:51:25.220Z,67.25
2022-12-11T05:53:53.286Z,67.49
2022-12-11T05:56:32.458Z,67.65
2022-12-11T05:59:00.861Z,67.94
2022-12-11T06:01:50.344Z,67.39
2022-12-11T06:04:18.311Z,67.22
2022-12-11T06:06:46.139Z,68.45
2022-12-11T06:09:15.151Z,67.71
2022-12-11T06:11:42.962Z,67.77
2022-12-11T06:14:11.341Z,68.25
2022-12-11T06:16:39.271Z,67.55
2022-12-11T06:19:07.476Z,67.62
2022-12-11T06:21:35.444Z,67.19
2022-12-11T06:24:04.095Z,66.90
2022-12-11T06:26:32.227Z,67.71
2022-12-11T06:29:00.277Z,67.57
2022-12-11T06:31:28.252Z,66.94
2022-12-11T06:33:56.319Z,66.47
2022-12-11T06:36:24.585Z,66.58
2022-12-11T06:38:52.688Z,66.73
2022-12-11T06:41:20.523Z,66.58
2022-12-11T06:43:48.405Z,66.21
2022-12-11T06:46:18.448Z,66.12
2022-12-11T06:48:46.889Z,66.38
2022-12-11T06:51:17.394Z,65.88
2022-12-11T06:53:45.589Z,66.56
2022-12-11T06:56:15.084Z,66.40
2022-12-11T06:58:43.258Z,66.14
2022-12-11T07:01:27.809Z,66.91
2022-12-11T07:03:57.359Z,66.21
2022-12-11T07:06:26.163Z,66.49
2022-12-11T07:08:54.690Z,66.45
2022-12-11T07:11:22.764Z,67.14
2022-12-11T07:13:51.138Z,67.11
2022-12-11T07:16:19.142Z,66.94
2022-12-11T07:18:49.712Z,67.38
2022-12-11T07:21:18.650Z,67.09
2022-12-11T07:23:48.049Z,66.81
2022-12-11T07:26:18.344Z,66.72
2022-12-11T07:28:46.212Z,67.30
2022-12-11T07:31:16.945Z,67.62
2022-12-11T07:33:45.125Z,66.80
2022-12-11T07:36:14.324Z,66.21
2022-12-11T07:38:42.697Z,66.29
2022-12-11T07:41:12.450Z,66.59
2022-12-11T07:43:41.093Z,66.63
2022-12-11T07:46:15.426Z,66.09
2022-12-11T07:48:45.726Z,65.69
2022-12-11T07:51:26.871Z,65.70
2022-12-11T07:54:00.404Z,66.42
2022-12-11T07:56:29.190Z,66.01
2022-12-11T07:59:00.768Z,66.18
2022-12-11T08:01:42.848Z,65.49
2022-12-11T08:04:11.437Z,64.99
2022-12-11T08:06:40.006Z,64.78
2022-12-11T08:09:10.219Z,64.69
2022-12-11T08:11:38.542Z,64.53
2022-12-11T08:14:08.009Z,64.54
2022-12-11T08:16:36.538Z,64.54
2022-12-11T08:19:04.656Z,64.60
2022-12-11T08:21:32.625Z,65.09
2022-12-11T08:24:00.434Z,65.47
2022-12-11T08:26:30.557Z,65.43
2022-12-11T08:28:58.781Z,65.31
2022-12-11T08:31:27.158Z,65.52
2022-12-11T08:33:56.603Z,65.92
2022-12-11T08:36:25.078Z,65.78
2022-12-11T08:38:55.110Z,65.75
2022-12-11T08:41:26.284Z,65.48
2022-12-11T08:43:55.584Z,65.49
2022-12-11T08:46:28.760Z,65.34
2022-12-11T08:48:57.477Z,65.09
2022-12-11T08:51:27.814Z,64.77
2022-12-11T08:54:00.382Z,64.94
2022-12-11T08:56:29.414Z,64.82
2022-12-11T08:59:01.042Z,64.68
2022-12-11T09:01:29.561Z,65.14
2022-12-11T09:03:57.779Z,64.77
2022-12-11T09:06:27.941Z,64.38
2022-12-11T09:08:56.273Z,64.30
2022-12-11T09:11:27.209Z,64.23
2022-12-11T09:13:55.175Z,64.23
2022-12-11T09:16:24.887Z,63.80
2022-12-11T09:18:54.571Z,63.67
2022-12-11T09:21:25.120Z,63.34
2022-12-11T09:23:55.010Z,63.17
2022-12-11T09:26:23.518Z,63.29
2022-12-11T09:28:53.477Z,63.25
2022-12-11T09:31:30.408Z,63.72
2022-12-11T09:34:03.910Z,63.45
2022-12-11T09:36:32.839Z,63.35
2022-12-11T09:39:06.027Z,63.17
2022-12-11T09:41:56.589Z,62.93
2022-12-11T09:44:34.699Z,63.18
2022-12-11T09:47:02.662Z,63.44
2022-12-11T09:49:41.688Z,64.00
2022-12-11T09:52:34.960Z,64.08
2022-12-11T09:55:14.688Z,63.28
2022-12-11T09:57:53.228Z,63.26
2022-12-11T10:00:33.766Z,63.08
2022-12-11T10:03:34.811Z,63.05
2022-12-11T10:06:30.071Z,63.18
2022-12-11T10:09:08.881Z,63.58
2022-12-11T10:11:56.967Z,63.55
2022-12-11T10:14:47.013Z,63.36
2022-12-11T10:17:21.488Z,62.85
2022-12-11T10:19:49.283Z,62.60
2022-12-11T10:22:27.630Z,62.82
2022-12-11T10:25:16.570Z,62.74
2022-12-11T10:27:45.411Z,62.71
2022-12-11T10:30:14.003Z,62.77
2022-12-11T10:32:53.637Z,62.64
2022-12-11T10:35:54.341Z,62.56
2022-12-11T10:38:29.141Z,61.78
2022-12-11T10:41:06.454Z,61.86
2022-12-11T10:43:42.475Z,62.20
2022-12-11T10:46:17.120Z,62.21
2022-12-11T10:48:56.092Z,62.34
2022-12-11T10:51:36.969Z,62.34
2022-12-11T10:54:29.201Z,62.57
2022-12-11T10:56:57.269Z,62.92
2022-12-11T10:59:33.736Z,62.90
2022-12-11T11:02:02.181Z,62.61
2022-12-11T11:04:33.294Z,62.44
2022-12-11T11:07:30.424Z,62.60
2022-12-11T11:10:10.969Z,62.44
2022-12-11T11:12:44.591Z,62.53
2022-12-11T11:15:15.807Z,62.42
2022-12-11T11:17:55.404Z,62.79
2022-12-11T11:20:27.066Z,63.57
2022-12-11T11:23:02.353Z,63.23
2022-12-11T11:25:31.574Z,62.76
2022-12-11T11:28:06.907Z,63.29
2022-12-11T11:30:37.510Z,63.57
2022-12-11T11:33:15.923Z,63.48
2022-12-11T11:36:07.794Z,63.16
2022-12-11T11:38:44.939Z,63.03
2022-12-11T11:41:29.695Z,63.16
2022-12-11T11:44:07.097Z,63.04
2022-12-11T11:46:43.351Z,63.00
2022-12-11T11:49:20.738Z,63.22
2022-12-11T11:51:59.611Z,63.11
2022-12-11T11:54:40.156Z,62.96
2022-12-11T11:57:20.564Z,63.18
2022-12-11T11:59:56.162Z,63.36
2022-12-11T12:02:24.136Z,63.01
2022-12-11T12:04:53.398Z,62.67
2022-12-11T12:07:33.550Z,62.60
2022-12-11T12:10:40.757Z,62.43
2022-12-11T12:13:49.470Z,62.45
2022-12-11T12:16:52.696Z,63.30
2022-12-11T12:19:45.587Z,63.54
2022-12-11T12:22:55.566Z,63.45
2022-12-11T12:25:36.652Z,63.95
2022-12-11T12:28:39.619Z,63.94
2022-12-11T12:31:32.441Z,63.74
2022-12-11T12:34:06.544Z,63.73
2022-12-11T12:36:46.672Z,63.92
2022-12-11T12:39:49.503Z,63.44
2022-12-11T12:42:48.643Z,63.54
2022-12-11T12:45:50.024Z,63.66
2022-12-11T12:48:18.147Z,63.83
2022-12-11T12:50:48.877Z,63.78
2022-12-11T12:53:20.752Z,63.46
2022-12-11T12:55:49.114Z,63.20
2022-12-11T12:58:40.158Z,62.89
2022-12-11T13:01:20.979Z,63.00
2022-12-11T13:04:03.145Z,62.51
2022-12-11T13:06:43.079Z,62.07
2022-12-11T13:09:17.934Z,62.25
2022-12-11T13:11:46.795Z,61.63
2022-12-11T13:14:15.574Z,61.93
2022-12-11T13:16:48.668Z,61.95
2022-12-11T13:19:22.847Z,61.93
2022-12-11T13:22:12.730Z,62.06
2022-12-11T13:24:52.985Z,61.64
2022-12-11T13:27:39.997Z,61.84
2022-12-11T13:30:28.652Z,62.05
2022-12-11T13:33:06.759Z,61.95
2022-12-11T13:35:35.448Z,62.38
2022-12-11T13:38:08.784Z,62.24
2022-12-11T13:40:41.311Z,62.15
2022-12-11T13:43:23.402Z,62.29
2022-12-11T13:45:59.954Z,62.71
2022-12-11T13:48:38.188Z,62.46
2022-12-11T13:51:06.668Z,62.46
2022-12-11T13:53:34.592Z,62.59
2022-12-11T13:56:05.673Z,62.72
2022-12-11T13:58:35.444Z,62.77
2022-12-11T14:01:20.676Z,62.86
2022-12-11T14:04:07.987Z,62.86
2022-12-11T14:06:36.117Z,62.90
2022-12-11T14:09:04.242Z,62.61
2022-12-11T14:11:37.645Z,62.46
2022-12-11T14:14:07.325Z,62.60
2022-12-11T14:16:35.669Z,62.49
2022-12-11T14:19:06.589Z,62.22
2022-12-11T14:21:34.711Z,62.18
2022-12-11T14:24:04.037Z,62.10
2022-12-11T14:26:34.443Z,61.85
2022-12-11T14:29:03.037Z,62.20
2022-12-11T14:31:39.800Z,61.90
2022-12-11T14:34:19.363Z,61.91
2022-12-11T14:36:47.298Z,61.71
2022-12-11T14:39:21.189Z,61.98
2022-12-11T14:42:13.190Z,62.50
2022-12-11T14:44:55.599Z,62.66
2022-12-11T14:47:27.487Z,62.67
2022-12-11T14:50:07.317Z,62.73
2022-12-11T14:52:50.587Z,62.51
2022-12-11T14:55:29.399Z,62.09
2022-12-11T14:58:00.119Z,61.86
2022-12-11T15:00:33.730Z,62.04
2022-12-11T15:03:04.094Z,61.91
2022-12-11T15:05:38.820Z,61.83
2022-12-11T15:08:12.035Z,61.89
2022-12-11T15:10:55.705Z,61.78
2022-12-11T15:13:24.495Z,61.88
2022-12-11T15:15:52.462Z,61.94
2022-12-11T15:18:31.995Z,61.77
2022-12-11T15:21:02.471Z,61.55
2022-12-11T15:23:30.398Z,61.20
2022-12-11T15:25:59.795Z,61.19
2022-12-11T15:28:34.418Z,61.30
2022-12-11T15:31:08.898Z,61.05
2022-12-11T15:33:46.992Z,60.75
2022-12-11T15:36:31.523Z,61.08
2022-12-11T15:38:59.366Z,60.95
2022-12-11T15:41:27.641Z,60.80
2022-12-11T15:43:58.938Z,61.01
2022-12-11T15:46:27.741Z,60.93
2022-12-11T15:48:56.766Z,60.64
2022-12-11T15:51:25.553Z,60.40
2022-12-11T15:53:53.626Z,60.63
2022-12-11T15:56:21.695Z,60.41
2022-12-11T15:58:49.635Z,60.36
2022-12-11T16:01:18.110Z,60.38
2022-12-11T16:03:46.206Z,60.65
2022-12-11T16:06:14.281Z,60.35
2022-12-11T16:08:42.044Z,60.31
2022-12-11T16:11:12.283Z,60.39
2022-12-11T16:13:40.134Z,60.58
2022-12-11T16:16:08.063Z,61.00
2022-12-11T16:18:35.965Z,60.97
2022-12-11T16:21:05.366Z,61.16
2022-12-11T16:23:33.747Z,61.41
2022-12-11T16:26:07.353Z,61.41
2022-12-11T16:28:35.414Z,61.22
2022-12-11T16:31:03.550Z,60.93
2022-12-11T16:33:31.861Z,60.71
2022-12-11T16:35:59.936Z,60.98
2022-12-11T16:38:27.930Z,61.03
2022-12-11T16:41:01.999Z,60.95
2022-12-11T16:43:29.808Z,60.77
2022-12-11T16:45:58.084Z,60.66
2022-12-11T16:48:26.119Z,60.35
2022-12-11T16:50:54.703Z,60.41
2022-12-11T16:53:22.802Z,60.52
2022-12-11T16:55:50.842Z,60.67
2022-12-11T16:58:21.579Z,60.52
2022-12-11T17:00:49.665Z,60.33
2022-12-11T17:03:18.564Z,60.39
2022-12-11T17:05:46.710Z,60.50
2022-12-11T17:08:14.853Z,60.24
2022-12-11T17:10:42.947Z,60.48
2022-12-11T17:13:10.922Z,60.64
2022-12-11T17:15:45.153Z,61.15
2022-12-11T17:18:13.306Z,61.42
2022-12-11T17:20:42.503Z,61.28
2022-12-11T17:23:11.672Z,60.98
2022-12-11T17:25:44.481Z,61.22
2022-12-11T17:28:13.579Z,61.17
2022-12-11T17:30:43.087Z,61.34
2022-12-11T17:33:11.561Z,61.26
2022-12-11T17:35:39.630Z,61.05
2022-12-11T17:38:07.801Z,60.97
2022-12-11T17:40:41.339Z,61.22
2022-12-11T17:43:10.595Z,61.35
2022-12-11T17:45:46.041Z,61.28
2022-12-11T17:48:14.626Z,60.92
2022-12-11T17:50:43.723Z,60.49
2022-12-11T17:53:13.120Z,60.73
2022-12-11T17:55:45.233Z,61.11
2022-12-11T17:58:15.820Z,61.13
2022-12-11T18:00:45.697Z,61.04
2022-12-11T18:03:13.869Z,60.83
2022-12-11T18:05:43.816Z,60.63
2022-12-11T18:08:16.847Z,60.42
2022-12-11T18:10:44.769Z,60.33
2022-12-11T18:13:13.349Z,60.16
2022-12-11T18:15:42.535Z,59.95
2022-12-11T18:18:10.647Z,59.66
2022-12-11T18:20:39.117Z,59.97
2022-12-11T18:23:07.166Z,60.27
2022-12-11T18:25:35.440Z,60.68
2022-12-11T18:28:03.441Z,60.59
2022-12-11T18:30:34.346Z,60.59
2022-12-11T18:33:02.419Z,60.60
2022-12-11T18:35:30.902Z,60.76
2022-12-11T18:37:58.717Z,60.99
2022-12-11T18:40:28.675Z,61.16
2022-12-11T18:42:58.179Z,60.70
2022-12-11T18:45:26.352Z,60.58
2022-12-11T18:47:56.681Z,60.62
2022-12-11T18:50:27.102Z,60.50
2022-12-11T18:52:55.477Z,60.77
2022-12-11T18:55:23.551Z,60.85
2022-12-11T18:57:51.657Z,60.81
2022-12-11T19:00:20.362Z,60.68
2022-12-11T19:02:52.468Z,60.56
2022-12-11T19:05:20.653Z,60.43
2022-12-11T19:07:48.864Z,60.49
2022-12-11T19:10:16.987Z,60.36
2022-12-11T19:12:45.002Z,60.33
2022-12-11T19:15:13.360Z,60.35
2022-12-11T19:17:43.454Z,60.43
2022-12-11T19:20:40.523Z,60.56
2022-12-11T19:23:00.481Z,60.45
2022-12-11T19:25:28.448Z,60.84
2022-12-11T19:27:57.192Z,61.27
2022-12-11T19:30:25.509Z,61.59
2022-12-11T19:32:54.299Z,61.57
2022-12-11T19:35:22.450Z,61.49
2022-12-11T19:37:50.540Z,61.66
2022-12-11T19:40:18.939Z,61.60
2022-12-11T19:42:46.892Z,61.47
2022-12-11T19:45:14.977Z,61.77
2022-12-11T19:47:43.026Z,61.82
2022-12-11T19:50:11.096Z,61.48
2022-12-11T19:52:45.993Z,61.62
2022-12-11T19:55:15.274Z,62.02
2022-12-11T19:57:43.309Z,61.76
2022-12-11T20:00:12.050Z,61.63
2022-12-11T20:02:43.327Z,61.65
2022-12-11T20:05:11.845Z,61.51
2022-12-11T20:07:40.390Z,61.67
2022-12-11T20:10:09.484Z,61.64
2022-12-11T20:12:37.554Z,62.11
2022-12-11T20:15:06.241Z,62.14
2022-12-11T20:17:34.469Z,62.48
2022-12-11T20:20:02.483Z,62.73
2022-12-11T20:22:30.527Z,62.54
2022-12-11T20:24:58.631Z,62.26
2022-12-11T20:27:28.639Z,62.21
2022-12-11T20:29:56.606Z,62.38
2022-12-11T20:32:24.436Z,62.77
2022-12-11T20:34:56.756Z,62.52
2022-12-11T20:37:26.346Z,62.34
2022-12-11T20:39:54.325Z,62.19
2022-12-11T20:42:22.589Z,62.04
2022-12-11T20:44:50.714Z,62.18
2022-12-11T20:47:21.802Z,62.39
2022-12-11T20:49:50.385Z,62.66
2022-12-11T20:52:19.096Z,62.91
2022-12-11T20:54:47.114Z,62.73
2022-12-11T20:57:16.644Z,62.60
2022-12-11T20:59:45.532Z,62.10
2022-12-11T21:02:13.504Z,62.20
2022-12-11T21:04:41.893Z,61.89
2022-12-11T21:07:10.199Z,61.53
2022-12-11T21:09:38.631Z,61.44
2022-12-11T21:12:07.421Z,61.71
2022-12-11T21:14:35.412Z,61.35
2022-12-11T21:17:03.355Z,61.58
2022-12-11T21:19:31.526Z,61.81
2022-12-11T21:21:59.598Z,62.15
2022-12-11T21:24:28.690Z,62.19
2022-12-11T21:26:57.888Z,61.87
2022-12-11T21:29:26.883Z,61.68
2022-12-11T21:31:54.826Z,61.76
2022-12-11T21:34:25.576Z,61.62
2022-12-11T21:36:57.219Z,61.48
2022-12-11T21:39:26.435Z,61.32
2022-12-11T21:41:54.400Z,60.89
2022-12-11T21:47:11.224Z,60.67
2022-12-11T21:49:39.090Z,60.78
2022-12-11T21:52:08.594Z,60.92
2022-12-11T21:54:36.663Z,61.67
2022-12-11T21:57:05.049Z,61.42
2022-12-11T21:59:32.886Z,61.44
2022-12-11T22:02:00.816Z,61.00
2022-12-11T22:04:28.743Z,61.08
2022-12-11T22:06:56.606Z,61.15
2022-12-11T22:09:24.681Z,61.21
2022-12-11T22:11:57.946Z,61.14
2022-12-11T22:14:26.493Z,60.83
2022-12-11T22:16:54.485Z,60.87
2022-12-11T22:19:22.384Z,61.18
2022-12-11T22:21:50.215Z,61.30
2022-12-11T22:24:18.115Z,60.99
2022-12-11T22:26:45.982Z,60.81
2022-12-11T22:29:13.905Z,60.87
2022-12-11T22:31:41.711Z,60.61
2022-12-11T22:34:09.475Z,60.62
2022-12-11T22:36:37.343Z,60.51
2022-12-11T22:39:05.205Z,60.76
2022-12-11T22:41:33.069Z,60.69
2022-12-11T22:44:00.843Z,61.24
2022-12-11T22:46:30.049Z,61.30
2022-12-11T22:48:58.510Z,61.32
2022-12-11T22:51:26.296Z,61.22
2022-12-11T22:53:54.140Z,60.86
2022-12-11T22:56:21.927Z,60.53
2022-12-11T22:58:50.002Z,60.60
2022-12-11T23:01:22.511Z,60.58
2022-12-11T23:03:50.647Z,60.43
2022-12-11T23:06:20.974Z,60.17
2022-12-11T23:08:48.856Z,60.26
2022-12-11T23:11:26.606Z,60.25
2022-12-11T23:13:54.786Z,60.24
2022-12-11T23:16:23.975Z,60.37
2022-12-11T23:18:52.147Z,60.16
2022-12-11T23:21:20.424Z,60.15
2022-12-11T23:23:49.108Z,60.33
2022-12-11T23:26:18.896Z,60.56
2022-12-11T23:28:47.091Z,60.79
2022-12-11T23:31:14.926Z,61.03
2022-12-11T23:33:42.824Z,60.71
2022-12-11T23:36:10.588Z,60.64
2022-12-11T23:38:38.450Z,60.68
2022-12-11T23:41:06.827Z,60.55
2022-12-11T23:43:35.311Z,60.46
2022-12-11T23:46:05.136Z,60.21
2022-12-11T23:48:33.190Z,60.43
2022-12-11T23:51:01.651Z,60.26
2022-12-11T23:53:29.536Z,60.78
2022-12-11T23:56:02.007Z,61.28
2022-12-11T23:58:30.283Z,61.29
